sensor_id;sensor_type;location;lat;lon;timestamp;P1;durP1;ratioP1;P2;durP2;ratioP2
43841;SDS011;29495;49.970;20.842;2022-10-17T00:02:19;6.70;;;4.63;;
43841;SDS011;29495;49.970;20.842;2022-10-17T00:04:45;7.15;;;5.05;;
43841;SDS011;29495;49.970;20.842;2022-10-17T00:07:11;7.57;;;4.57;;
43841;SDS011;29495;49.970;20.842;2022-10-17T00:09:36;6.20;;;4.10;;
43841;SDS011;29495;49.970;20.842;2022-10-17T00:12:03;4.95;;;3.80;;
43841;SDS011;29495;49.970;20.842;2022-10-17T00:14:29;6.22;;;4.65;;
43841;SDS011;29495;49.970;20.842;2022-10-17T00:16:55;6.32;;;4.80;;
43841;SDS011;29495;49.970;20.842;2022-10-17T00:19:21;6.35;;;4.63;;
43841;SDS011;29495;49.970;20.842;2022-10-17T00:21:47;5.78;;;4.68;;
43841;SDS011;29495;49.970;20.842;2022-10-17T00:24:14;6.43;;;4.20;;
43841;SDS011;29495;49.970;20.842;2022-10-17T00:26:39;4.65;;;3.78;;
43841;SDS011;29495;49.970;20.842;2022-10-17T00:29:06;6.05;;;4.38;;
43841;SDS011;29495;49.970;20.842;2022-10-17T00:31:32;5.10;;;3.78;;
43841;SDS011;29495;49.970;20.842;2022-10-17T00:33:58;6.07;;;4.13;;
43841;SDS011;29495;49.970;20.842;2022-10-17T00:36:24;6.72;;;4.80;;
43841;SDS011;29495;49.970;20.842;2022-10-17T00:38:53;8.23;;;4.88;;
43841;SDS011;29495;49.970;20.842;2022-10-17T00:41:23;6.13;;;4.00;;
43841;SDS011;29495;49.970;20.842;2022-10-17T00:43:58;4.20;;;3.65;;
43841;SDS011;29495;49.970;20.842;2022-10-17T00:46:33;9.88;;;5.20;;
43841;SDS011;29495;49.970;20.842;2022-10-17T00:49:07;6.28;;;4.50;;
43841;SDS011;29495;49.970;20.842;2022-10-17T00:54:04;4.75;;;3.70;;
43841;SDS011;29495;49.970;20.842;2022-10-17T00:56:31;7.30;;;4.20;;
43841;SDS011;29495;49.970;20.842;2022-10-17T00:58:58;4.60;;;3.63;;
43841;SDS011;29495;49.970;20.842;2022-10-17T01:01:24;6.00;;;4.00;;
43841;SDS011;29495;49.970;20.842;2022-10-17T01:03:50;6.15;;;4.22;;
43841;SDS011;29495;49.970;20.842;2022-10-17T01:06:16;4.85;;;3.80;;
43841;SDS011;29495;49.970;20.842;2022-10-17T01:08:42;6.18;;;3.90;;
43841;SDS011;29495;49.970;20.842;2022-10-17T01:13:58;6.43;;;4.40;;
43841;SDS011;29495;49.970;20.842;2022-10-17T01:16:35;5.13;;;3.92;;
43841;SDS011;29495;49.970;20.842;2022-10-17T01:31:44;5.70;;;3.90;;
43841;SDS011;29495;49.970;20.842;2022-10-17T01:34:13;9.82;;;4.05;;
43841;SDS011;29495;49.970;20.842;2022-10-17T01:36:55;4.85;;;3.72;;
43841;SDS011;29495;49.970;20.842;2022-10-17T01:40:33;5.63;;;4.30;;
43841;SDS011;29495;49.970;20.842;2022-10-17T01:47:41;5.32;;;4.25;;
43841;SDS011;29495;49.970;20.842;2022-10-17T01:50:11;5.97;;;4.63;;
43841;SDS011;29495;49.970;20.842;2022-10-17T01:52:42;8.23;;;5.10;;
43841;SDS011;29495;49.970;20.842;2022-10-17T01:55:20;7.95;;;4.43;;
43841;SDS011;29495;49.970;20.842;2022-10-17T01:57:54;6.93;;;4.68;;
43841;SDS011;29495;49.970;20.842;2022-10-17T02:00:24;5.95;;;4.70;;
43841;SDS011;29495;49.970;20.842;2022-10-17T02:02:53;5.33;;;4.40;;
43841;SDS011;29495;49.970;20.842;2022-10-17T02:05:24;6.07;;;4.60;;
43841;SDS011;29495;49.970;20.842;2022-10-17T02:07:53;4.57;;;3.83;;
43841;SDS011;29495;49.970;20.842;2022-10-17T02:13:11;7.05;;;4.45;;
43841;SDS011;29495;49.970;20.842;2022-10-17T02:16:06;4.70;;;3.88;;
43841;SDS011;29495;49.970;20.842;2022-10-17T02:21:40;7.18;;;4.47;;
43841;SDS011;29495;49.970;20.842;2022-10-17T02:27:14;6.22;;;4.68;;
43841;SDS011;29495;49.970;20.842;2022-10-17T02:30:11;5.82;;;4.43;;
43841;SDS011;29495;49.970;20.842;2022-10-17T02:32:54;6.28;;;4.70;;
43841;SDS011;29495;49.970;20.842;2022-10-17T02:35:29;6.72;;;5.13;;
43841;SDS011;29495;49.970;20.842;2022-10-17T02:38:00;6.22;;;4.63;;
43841;SDS011;29495;49.970;20.842;2022-10-17T02:40:28;6.55;;;4.88;;
43841;SDS011;29495;49.970;20.842;2022-10-17T02:42:56;5.18;;;4.13;;
43841;SDS011;29495;49.970;20.842;2022-10-17T02:47:54;4.45;;;3.70;;
43841;SDS011;29495;49.970;20.842;2022-10-17T02:50:32;5.80;;;4.60;;
43841;SDS011;29495;49.970;20.842;2022-10-17T02:53:08;5.85;;;4.43;;
43841;SDS011;29495;49.970;20.842;2022-10-17T02:55:45;6.68;;;4.95;;
43841;SDS011;29495;49.970;20.842;2022-10-17T02:58:25;5.82;;;4.05;;
43841;SDS011;29495;49.970;20.842;2022-10-17T03:00:55;5.32;;;4.32;;
43841;SDS011;29495;49.970;20.842;2022-10-17T03:03:27;7.45;;;4.95;;
43841;SDS011;29495;49.970;20.842;2022-10-17T03:05:59;7.93;;;5.50;;
43841;SDS011;29495;49.970;20.842;2022-10-17T03:08:25;6.05;;;4.55;;
43841;SDS011;29495;49.970;20.842;2022-10-17T03:10:51;6.88;;;5.22;;
43841;SDS011;29495;49.970;20.842;2022-10-17T03:13:17;6.55;;;4.63;;
43841;SDS011;29495;49.970;20.842;2022-10-17T03:15:44;6.95;;;4.70;;
43841;SDS011;29495;49.970;20.842;2022-10-17T03:18:10;6.75;;;4.82;;
43841;SDS011;29495;49.970;20.842;2022-10-17T03:20:36;8.15;;;4.93;;
43841;SDS011;29495;49.970;20.842;2022-10-17T03:23:02;6.57;;;4.93;;
43841;SDS011;29495;49.970;20.842;2022-10-17T03:25:29;6.10;;;4.60;;
43841;SDS011;29495;49.970;20.842;2022-10-17T03:27:57;5.07;;;3.95;;
43841;SDS011;29495;49.970;20.842;2022-10-17T03:30:25;6.50;;;4.18;;
43841;SDS011;29495;49.970;20.842;2022-10-17T03:32:52;5.15;;;3.97;;
43841;SDS011;29495;49.970;20.842;2022-10-17T03:35:18;6.10;;;5.25;;
43841;SDS011;29495;49.970;20.842;2022-10-17T03:37:51;6.93;;;5.00;;
43841;SDS011;29495;49.970;20.842;2022-10-17T03:40:21;6.03;;;4.55;;
43841;SDS011;29495;49.970;20.842;2022-10-17T03:42:47;5.55;;;4.30;;
43841;SDS011;29495;49.970;20.842;2022-10-17T03:45:13;4.68;;;3.78;;
43841;SDS011;29495;49.970;20.842;2022-10-17T03:47:43;4.53;;;3.70;;
43841;SDS011;29495;49.970;20.842;2022-10-17T03:50:09;7.55;;;4.75;;
43841;SDS011;29495;49.970;20.842;2022-10-17T03:52:37;4.18;;;3.47;;
43841;SDS011;29495;49.970;20.842;2022-10-17T03:55:03;4.38;;;3.55;;
43841;SDS011;29495;49.970;20.842;2022-10-17T03:57:30;5.22;;;4.18;;
43841;SDS011;29495;49.970;20.842;2022-10-17T03:59:56;5.60;;;3.90;;
43841;SDS011;29495;49.970;20.842;2022-10-17T04:02:23;4.85;;;3.40;;
43841;SDS011;29495;49.970;20.842;2022-10-17T04:04:49;5.55;;;3.85;;
43841;SDS011;29495;49.970;20.842;2022-10-17T04:07:15;6.55;;;4.60;;
43841;SDS011;29495;49.970;20.842;2022-10-17T04:09:47;6.45;;;5.22;;
43841;SDS011;29495;49.970;20.842;2022-10-17T04:12:18;7.07;;;4.40;;
43841;SDS011;29495;49.970;20.842;2022-10-17T04:14:45;5.25;;;4.20;;
43841;SDS011;29495;49.970;20.842;2022-10-17T04:17:15;6.95;;;4.82;;
43841;SDS011;29495;49.970;20.842;2022-10-17T04:19:41;5.97;;;4.32;;
43841;SDS011;29495;49.970;20.842;2022-10-17T04:22:07;6.63;;;4.43;;
43841;SDS011;29495;49.970;20.842;2022-10-17T04:24:36;5.32;;;4.18;;
43841;SDS011;29495;49.970;20.842;2022-10-17T04:27:06;5.75;;;4.18;;
43841;SDS011;29495;49.970;20.842;2022-10-17T04:29:35;5.32;;;3.70;;
43841;SDS011;29495;49.970;20.842;2022-10-17T04:32:11;7.10;;;4.82;;
43841;SDS011;29495;49.970;20.842;2022-10-17T04:34:50;4.43;;;3.78;;
43841;SDS011;29495;49.970;20.842;2022-10-17T04:37:18;6.30;;;4.80;;
43841;SDS011;29495;49.970;20.842;2022-10-17T04:39:46;8.60;;;5.85;;
43841;SDS011;29495;49.970;20.842;2022-10-17T04:42:12;5.85;;;4.45;;
43841;SDS011;29495;49.970;20.842;2022-10-17T04:44:39;6.13;;;4.68;;
43841;SDS011;29495;49.970;20.842;2022-10-17T04:47:08;8.05;;;5.15;;
43841;SDS011;29495;49.970;20.842;2022-10-17T04:52:07;6.28;;;4.35;;
43841;SDS011;29495;49.970;20.842;2022-10-17T04:54:42;7.25;;;4.82;;
43841;SDS011;29495;49.970;20.842;2022-10-17T04:57:11;6.15;;;4.72;;
43841;SDS011;29495;49.970;20.842;2022-10-17T04:59:39;5.85;;;4.65;;
43841;SDS011;29495;49.970;20.842;2022-10-17T05:02:20;5.80;;;4.20;;
43841;SDS011;29495;49.970;20.842;2022-10-17T05:04:46;9.93;;;6.28;;
43841;SDS011;29495;49.970;20.842;2022-10-17T05:07:13;5.25;;;4.25;;
43841;SDS011;29495;49.970;20.842;2022-10-17T05:09:49;5.97;;;4.30;;
43841;SDS011;29495;49.970;20.842;2022-10-17T05:12:17;5.57;;;4.53;;
43841;SDS011;29495;49.970;20.842;2022-10-17T05:14:44;4.88;;;3.92;;
43841;SDS011;29495;49.970;20.842;2022-10-17T05:17:10;4.97;;;4.20;;
43841;SDS011;29495;49.970;20.842;2022-10-17T05:19:37;5.00;;;3.80;;
43841;SDS011;29495;49.970;20.842;2022-10-17T05:22:06;5.05;;;4.00;;
43841;SDS011;29495;49.970;20.842;2022-10-17T05:24:32;7.53;;;4.55;;
43841;SDS011;29495;49.970;20.842;2022-10-17T05:26:58;6.07;;;4.03;;
43841;SDS011;29495;49.970;20.842;2022-10-17T05:29:24;7.53;;;4.85;;
43841;SDS011;29495;49.970;20.842;2022-10-17T05:32:04;5.97;;;4.78;;
43841;SDS011;29495;49.970;20.842;2022-10-17T05:34:33;6.07;;;4.53;;
43841;SDS011;29495;49.970;20.842;2022-10-17T05:36:59;7.18;;;5.07;;
43841;SDS011;29495;49.970;20.842;2022-10-17T05:39:25;6.88;;;5.30;;
43841;SDS011;29495;49.970;20.842;2022-10-17T05:41:52;9.93;;;5.80;;
43841;SDS011;29495;49.970;20.842;2022-10-17T05:44:18;12.05;;;5.57;;
43841;SDS011;29495;49.970;20.842;2022-10-17T05:46:50;10.90;;;6.97;;
43841;SDS011;29495;49.970;20.842;2022-10-17T05:49:16;8.60;;;5.88;;
43841;SDS011;29495;49.970;20.842;2022-10-17T05:51:42;8.43;;;6.25;;
43841;SDS011;29495;49.970;20.842;2022-10-17T05:54:13;11.70;;;6.25;;
43841;SDS011;29495;49.970;20.842;2022-10-17T05:56:39;6.15;;;4.68;;
43841;SDS011;29495;49.970;20.842;2022-10-17T05:59:09;7.55;;;5.15;;
43841;SDS011;29495;49.970;20.842;2022-10-17T06:01:51;8.23;;;5.63;;
43841;SDS011;29495;49.970;20.842;2022-10-17T06:04:18;7.43;;;4.70;;
43841;SDS011;29495;49.970;20.842;2022-10-17T06:06:47;8.18;;;5.20;;
43841;SDS011;29495;49.970;20.842;2022-10-17T06:12:16;7.18;;;4.97;;
43841;SDS011;29495;49.970;20.842;2022-10-17T06:17:25;7.63;;;5.32;;
43841;SDS011;29495;49.970;20.842;2022-10-17T06:23:20;6.88;;;4.93;;
43841;SDS011;29495;49.970;20.842;2022-10-17T06:25:59;5.65;;;4.45;;
43841;SDS011;29495;49.970;20.842;2022-10-17T06:29:26;8.60;;;4.20;;
43841;SDS011;29495;49.970;20.842;2022-10-17T06:35:08;10.07;;;4.45;;
43841;SDS011;29495;49.970;20.842;2022-10-17T06:38:18;8.68;;;4.68;;
43841;SDS011;29495;49.970;20.842;2022-10-17T06:45:29;5.07;;;4.18;;
43841;SDS011;29495;49.970;20.842;2022-10-17T06:48:44;6.63;;;4.57;;
43841;SDS011;29495;49.970;20.842;2022-10-17T06:59:55;5.57;;;3.30;;
43841;SDS011;29495;49.970;20.842;2022-10-17T07:03:14;4.80;;;3.88;;
43841;SDS011;29495;49.970;20.842;2022-10-17T07:06:40;4.47;;;3.50;;
43841;SDS011;29495;49.970;20.842;2022-10-17T07:09:45;6.63;;;4.13;;
43841;SDS011;29495;49.970;20.842;2022-10-17T07:12:21;4.40;;;3.40;;
43841;SDS011;29495;49.970;20.842;2022-10-17T07:14:58;4.10;;;3.70;;
43841;SDS011;29495;49.970;20.842;2022-10-17T07:17:48;5.28;;;3.63;;
43841;SDS011;29495;49.970;20.842;2022-10-17T07:24:01;6.18;;;4.70;;
43841;SDS011;29495;49.970;20.842;2022-10-17T07:26:32;5.43;;;3.65;;
43841;SDS011;29495;49.970;20.842;2022-10-17T07:29:32;8.25;;;4.68;;
43841;SDS011;29495;49.970;20.842;2022-10-17T07:32:51;6.57;;;3.90;;
43841;SDS011;29495;49.970;20.842;2022-10-17T07:35:53;5.75;;;4.10;;
43841;SDS011;29495;49.970;20.842;2022-10-17T07:39:14;5.10;;;3.95;;
43841;SDS011;29495;49.970;20.842;2022-10-17T07:42:23;4.13;;;3.15;;
43841;SDS011;29495;49.970;20.842;2022-10-17T07:48:51;4.20;;;3.50;;
43841;SDS011;29495;49.970;20.842;2022-10-17T07:51:57;7.85;;;4.70;;
43841;SDS011;29495;49.970;20.842;2022-10-17T07:55:03;9.25;;;4.85;;
43841;SDS011;29495;49.970;20.842;2022-10-17T07:57:51;10.48;;;7.05;;
43841;SDS011;29495;49.970;20.842;2022-10-17T08:00:44;5.78;;;4.80;;
43841;SDS011;29495;49.970;20.842;2022-10-17T08:06:37;7.88;;;4.05;;
43841;SDS011;29495;49.970;20.842;2022-10-17T08:12:15;6.50;;;4.40;;
43841;SDS011;29495;49.970;20.842;2022-10-17T08:17:55;4.78;;;3.75;;
43841;SDS011;29495;49.970;20.842;2022-10-17T08:20:24;7.95;;;4.97;;
43841;SDS011;29495;49.970;20.842;2022-10-17T08:22:52;7.57;;;5.43;;
43841;SDS011;29495;49.970;20.842;2022-10-17T08:25:20;9.55;;;5.45;;
43841;SDS011;29495;49.970;20.842;2022-10-17T08:27:50;5.88;;;3.72;;
43841;SDS011;29495;49.970;20.842;2022-10-17T08:30:24;6.20;;;4.45;;
43841;SDS011;29495;49.970;20.842;2022-10-17T08:32:53;6.70;;;5.18;;
43841;SDS011;29495;49.970;20.842;2022-10-17T08:35:25;5.65;;;4.45;;
43841;SDS011;29495;49.970;20.842;2022-10-17T08:38:16;6.22;;;4.28;;
43841;SDS011;29495;49.970;20.842;2022-10-17T08:40:54;6.03;;;4.88;;
43841;SDS011;29495;49.970;20.842;2022-10-17T08:46:36;7.40;;;5.63;;
43841;SDS011;29495;49.970;20.842;2022-10-17T08:50:11;5.53;;;4.32;;
43841;SDS011;29495;49.970;20.842;2022-10-17T08:52:43;7.55;;;5.55;;
43841;SDS011;29495;49.970;20.842;2022-10-17T08:55:17;7.80;;;5.68;;
43841;SDS011;29495;49.970;20.842;2022-10-17T08:58:13;5.90;;;4.35;;
43841;SDS011;29495;49.970;20.842;2022-10-17T09:07:16;8.00;;;5.38;;
43841;SDS011;29495;49.970;20.842;2022-10-17T09:09:54;7.30;;;4.55;;
43841;SDS011;29495;49.970;20.842;2022-10-17T09:12:42;6.95;;;4.65;;
43841;SDS011;29495;49.970;20.842;2022-10-17T09:18:19;8.00;;;5.35;;
43841;SDS011;29495;49.970;20.842;2022-10-17T09:20:54;6.82;;;4.38;;
43841;SDS011;29495;49.970;20.842;2022-10-17T09:23:29;6.00;;;4.78;;
43841;SDS011;29495;49.970;20.842;2022-10-17T09:26:00;9.52;;;5.55;;
43841;SDS011;29495;49.970;20.842;2022-10-17T09:28:37;5.97;;;4.53;;
43841;SDS011;29495;49.970;20.842;2022-10-17T09:31:09;7.60;;;4.90;;
43841;SDS011;29495;49.970;20.842;2022-10-17T09:33:59;7.35;;;5.10;;
43841;SDS011;29495;49.970;20.842;2022-10-17T09:36:39;9.70;;;5.35;;
43841;SDS011;29495;49.970;20.842;2022-10-17T09:39:23;8.70;;;5.00;;
43841;SDS011;29495;49.970;20.842;2022-10-17T09:41:54;5.97;;;4.32;;
43841;SDS011;29495;49.970;20.842;2022-10-17T09:44:23;6.13;;;4.10;;
43841;SDS011;29495;49.970;20.842;2022-10-17T09:49:48;6.68;;;4.65;;
43841;SDS011;29495;49.970;20.842;2022-10-17T09:52:28;6.95;;;4.82;;
43841;SDS011;29495;49.970;20.842;2022-10-17T09:55:21;7.10;;;4.93;;
43841;SDS011;29495;49.970;20.842;2022-10-17T09:58:06;6.40;;;4.65;;
43841;SDS011;29495;49.970;20.842;2022-10-17T10:00:57;6.47;;;4.82;;
43841;SDS011;29495;49.970;20.842;2022-10-17T10:04:13;6.68;;;5.00;;
43841;SDS011;29495;49.970;20.842;2022-10-17T10:07:00;5.78;;;4.72;;
43841;SDS011;29495;49.970;20.842;2022-10-17T10:09:33;6.40;;;5.13;;
43841;SDS011;29495;49.970;20.842;2022-10-17T10:12:05;5.00;;;4.10;;
43841;SDS011;29495;49.970;20.842;2022-10-17T10:14:51;5.72;;;4.28;;
43841;SDS011;29495;49.970;20.842;2022-10-17T10:17:37;6.18;;;5.05;;
43841;SDS011;29495;49.970;20.842;2022-10-17T10:25:30;5.90;;;4.75;;
43841;SDS011;29495;49.970;20.842;2022-10-17T10:27:56;8.00;;;5.00;;
43841;SDS011;29495;49.970;20.842;2022-10-17T10:30:24;6.80;;;4.75;;
43841;SDS011;29495;49.970;20.842;2022-10-17T10:32:54;6.38;;;4.72;;
43841;SDS011;29495;49.970;20.842;2022-10-17T10:35:31;6.90;;;4.93;;
43841;SDS011;29495;49.970;20.842;2022-10-17T10:37:59;6.22;;;5.10;;
43841;SDS011;29495;49.970;20.842;2022-10-17T10:40:43;8.88;;;6.60;;
43841;SDS011;29495;49.970;20.842;2022-10-17T10:43:22;9.27;;;5.55;;
43841;SDS011;29495;49.970;20.842;2022-10-17T10:45:49;6.07;;;4.53;;
43841;SDS011;29495;49.970;20.842;2022-10-17T10:48:20;7.28;;;5.00;;
43841;SDS011;29495;49.970;20.842;2022-10-17T10:51:11;6.07;;;3.95;;
43841;SDS011;29495;49.970;20.842;2022-10-17T10:56:23;5.43;;;3.80;;
43841;SDS011;29495;49.970;20.842;2022-10-17T10:59:00;5.90;;;4.40;;
43841;SDS011;29495;49.970;20.842;2022-10-17T11:06:33;5.03;;;3.75;;
43841;SDS011;29495;49.970;20.842;2022-10-17T11:09:08;5.15;;;3.80;;
43841;SDS011;29495;49.970;20.842;2022-10-17T11:11:38;5.38;;;4.13;;
43841;SDS011;29495;49.970;20.842;2022-10-17T11:16:51;7.90;;;3.92;;
43841;SDS011;29495;49.970;20.842;2022-10-17T11:22:31;8.95;;;5.28;;
43841;SDS011;29495;49.970;20.842;2022-10-17T11:25:32;8.40;;;4.57;;
43841;SDS011;29495;49.970;20.842;2022-10-17T11:27:59;4.88;;;3.42;;
43841;SDS011;29495;49.970;20.842;2022-10-17T11:30:27;5.50;;;4.45;;
43841;SDS011;29495;49.970;20.842;2022-10-17T11:33:01;7.28;;;4.72;;
43841;SDS011;29495;49.970;20.842;2022-10-17T11:35:29;8.70;;;5.07;;
43841;SDS011;29495;49.970;20.842;2022-10-17T11:40:48;8.90;;;5.68;;
43841;SDS011;29495;49.970;20.842;2022-10-17T11:44:07;5.90;;;4.75;;
43841;SDS011;29495;49.970;20.842;2022-10-17T11:46:23;9.30;;;6.50;;
43841;SDS011;29495;49.970;20.842;2022-10-17T11:49:13;7.70;;;5.90;;
43841;SDS011;29495;49.970;20.842;2022-10-17T11:54:21;6.00;;;4.15;;
43841;SDS011;29495;49.970;20.842;2022-10-17T11:59:53;5.97;;;4.88;;
43841;SDS011;29495;49.970;20.842;2022-10-17T12:02:40;6.38;;;4.53;;
43841;SDS011;29495;49.970;20.842;2022-10-17T12:10:56;7.70;;;5.65;;
43841;SDS011;29495;49.970;20.842;2022-10-17T12:15:57;6.45;;;4.25;;
43841;SDS011;29495;49.970;20.842;2022-10-17T12:18:44;6.63;;;4.80;;
43841;SDS011;29495;49.970;20.842;2022-10-17T12:21:12;8.27;;;4.75;;
43841;SDS011;29495;49.970;20.842;2022-10-17T12:23:38;8.55;;;5.10;;
43841;SDS011;29495;49.970;20.842;2022-10-17T12:26:08;7.82;;;5.63;;
43841;SDS011;29495;49.970;20.842;2022-10-17T12:38:51;5.65;;;4.50;;
43841;SDS011;29495;49.970;20.842;2022-10-17T12:44:34;6.90;;;4.47;;
43841;SDS011;29495;49.970;20.842;2022-10-17T12:50:07;5.80;;;4.68;;
43841;SDS011;29495;49.970;20.842;2022-10-17T13:00:20;6.38;;;5.00;;
43841;SDS011;29495;49.970;20.842;2022-10-17T13:03:23;6.70;;;5.25;;
43841;SDS011;29495;49.970;20.842;2022-10-17T13:05:59;7.38;;;5.22;;
43841;SDS011;29495;49.970;20.842;2022-10-17T13:08:34;9.07;;;5.65;;
43841;SDS011;29495;49.970;20.842;2022-10-17T13:11:04;7.97;;;5.70;;
43841;SDS011;29495;49.970;20.842;2022-10-17T13:13:45;6.45;;;4.45;;
43841;SDS011;29495;49.970;20.842;2022-10-17T13:16:29;6.88;;;4.85;;
43841;SDS011;29495;49.970;20.842;2022-10-17T13:18:57;9.20;;;6.20;;
43841;SDS011;29495;49.970;20.842;2022-10-17T13:24:35;7.70;;;5.40;;
43841;SDS011;29495;49.970;20.842;2022-10-17T13:27:03;11.35;;;6.88;;
43841;SDS011;29495;49.970;20.842;2022-10-17T13:29:30;10.93;;;6.72;;
43841;SDS011;29495;49.970;20.842;2022-10-17T13:31:58;8.85;;;5.57;;
43841;SDS011;29495;49.970;20.842;2022-10-17T13:34:26;7.78;;;5.50;;
43841;SDS011;29495;49.970;20.842;2022-10-17T13:36:54;7.53;;;5.05;;
43841;SDS011;29495;49.970;20.842;2022-10-17T13:39:23;8.63;;;5.30;;
43841;SDS011;29495;49.970;20.842;2022-10-17T13:41:52;5.78;;;4.40;;
43841;SDS011;29495;49.970;20.842;2022-10-17T13:44:20;6.85;;;5.20;;
43841;SDS011;29495;49.970;20.842;2022-10-17T13:46:49;10.00;;;6.53;;
43841;SDS011;29495;49.970;20.842;2022-10-17T13:49:36;7.70;;;5.63;;
43841;SDS011;29495;49.970;20.842;2022-10-17T13:52:06;7.00;;;4.80;;
43841;SDS011;29495;49.970;20.842;2022-10-17T13:54:42;7.85;;;5.07;;
43841;SDS011;29495;49.970;20.842;2022-10-17T13:57:21;11.35;;;5.93;;
43841;SDS011;29495;49.970;20.842;2022-10-17T13:59:53;8.32;;;5.32;;
43841;SDS011;29495;49.970;20.842;2022-10-17T14:02:26;8.15;;;5.07;;
43841;SDS011;29495;49.970;20.842;2022-10-17T14:05:01;6.70;;;4.45;;
43841;SDS011;29495;49.970;20.842;2022-10-17T14:07:40;7.13;;;4.00;;
43841;SDS011;29495;49.970;20.842;2022-10-17T14:10:24;5.43;;;4.10;;
43841;SDS011;29495;49.970;20.842;2022-10-17T14:12:57;6.43;;;4.28;;
43841;SDS011;29495;49.970;20.842;2022-10-17T14:15:26;7.45;;;4.60;;
43841;SDS011;29495;49.970;20.842;2022-10-17T14:18:00;6.68;;;4.05;;
43841;SDS011;29495;49.970;20.842;2022-10-17T14:20:32;6.25;;;4.00;;
43841;SDS011;29495;49.970;20.842;2022-10-17T14:23:00;6.22;;;4.15;;
43841;SDS011;29495;49.970;20.842;2022-10-17T14:25:30;5.93;;;3.83;;
43841;SDS011;29495;49.970;20.842;2022-10-17T14:28:01;7.30;;;5.57;;
43841;SDS011;29495;49.970;20.842;2022-10-17T14:30:38;7.50;;;5.30;;
43841;SDS011;29495;49.970;20.842;2022-10-17T14:33:10;6.82;;;4.60;;
43841;SDS011;29495;49.970;20.842;2022-10-17T14:35:51;6.75;;;4.28;;
43841;SDS011;29495;49.970;20.842;2022-10-17T14:38:19;7.28;;;4.97;;
43841;SDS011;29495;49.970;20.842;2022-10-17T14:40:50;6.10;;;4.65;;
43841;SDS011;29495;49.970;20.842;2022-10-17T14:43:22;5.95;;;4.78;;
43841;SDS011;29495;49.970;20.842;2022-10-17T14:45:50;10.35;;;5.35;;
43841;SDS011;29495;49.970;20.842;2022-10-17T14:48:20;7.30;;;4.72;;
43841;SDS011;29495;49.970;20.842;2022-10-17T14:53:37;5.53;;;4.13;;
43841;SDS011;29495;49.970;20.842;2022-10-17T14:56:17;6.35;;;3.88;;
43841;SDS011;29495;49.970;20.842;2022-10-17T14:58:48;7.95;;;4.35;;
43841;SDS011;29495;49.970;20.842;2022-10-17T15:01:14;5.97;;;4.53;;
43841;SDS011;29495;49.970;20.842;2022-10-17T15:03:40;6.40;;;4.50;;
43841;SDS011;29495;49.970;20.842;2022-10-17T15:08:55;10.18;;;5.72;;
43841;SDS011;29495;49.970;20.842;2022-10-17T15:11:22;11.90;;;6.13;;
43841;SDS011;29495;49.970;20.842;2022-10-17T15:13:48;10.25;;;6.18;;
43841;SDS011;29495;49.970;20.842;2022-10-17T15:16:17;12.27;;;7.70;;
43841;SDS011;29495;49.970;20.842;2022-10-17T15:18:48;13.20;;;8.23;;
43841;SDS011;29495;49.970;20.842;2022-10-17T15:21:15;12.50;;;7.55;;
43841;SDS011;29495;49.970;20.842;2022-10-17T15:23:42;11.90;;;8.27;;
43841;SDS011;29495;49.970;20.842;2022-10-17T15:26:13;12.55;;;7.97;;
43841;SDS011;29495;49.970;20.842;2022-10-17T15:28:40;14.02;;;8.55;;
43841;SDS011;29495;49.970;20.842;2022-10-17T15:31:08;15.68;;;8.90;;
43841;SDS011;29495;49.970;20.842;2022-10-17T15:33:36;14.27;;;9.38;;
43841;SDS011;29495;49.970;20.842;2022-10-17T15:36:02;18.30;;;11.10;;
43841;SDS011;29495;49.970;20.842;2022-10-17T15:38:28;18.30;;;11.20;;
43841;SDS011;29495;49.970;20.842;2022-10-17T15:40:54;20.27;;;11.10;;
43841;SDS011;29495;49.970;20.842;2022-10-17T15:43:20;24.45;;;13.48;;
43841;SDS011;29495;49.970;20.842;2022-10-17T15:45:46;32.10;;;15.38;;
43841;SDS011;29495;49.970;20.842;2022-10-17T15:48:17;36.63;;;17.73;;
43841;SDS011;29495;49.970;20.842;2022-10-17T15:50:54;40.38;;;17.92;;
43841;SDS011;29495;49.970;20.842;2022-10-17T15:53:20;32.80;;;16.23;;
43841;SDS011;29495;49.970;20.842;2022-10-17T15:55:48;34.10;;;15.85;;
43841;SDS011;29495;49.970;20.842;2022-10-17T15:58:16;31.48;;;16.17;;
43841;SDS011;29495;49.970;20.842;2022-10-17T16:00:43;33.97;;;16.97;;
43841;SDS011;29495;49.970;20.842;2022-10-17T16:03:09;31.80;;;17.45;;
43841;SDS011;29495;49.970;20.842;2022-10-17T16:05:35;35.47;;;18.20;;
43841;SDS011;29495;49.970;20.842;2022-10-17T16:08:02;33.67;;;18.65;;
43841;SDS011;29495;49.970;20.842;2022-10-17T16:10:28;33.08;;;17.63;;
43841;SDS011;29495;49.970;20.842;2022-10-17T16:12:54;31.75;;;16.00;;
43841;SDS011;29495;49.970;20.842;2022-10-17T16:15:21;27.52;;;15.32;;
43841;SDS011;29495;49.970;20.842;2022-10-17T16:20:16;20.85;;;12.35;;
43841;SDS011;29495;49.970;20.842;2022-10-17T16:22:43;27.30;;;13.85;;
43841;SDS011;29495;49.970;20.842;2022-10-17T16:25:20;25.42;;;13.52;;
43841;SDS011;29495;49.970;20.842;2022-10-17T16:30:19;22.95;;;13.45;;
43841;SDS011;29495;49.970;20.842;2022-10-17T16:32:54;24.30;;;12.68;;
43841;SDS011;29495;49.970;20.842;2022-10-17T16:35:22;22.75;;;13.25;;
43841;SDS011;29495;49.970;20.842;2022-10-17T16:37:56;21.10;;;12.10;;
43841;SDS011;29495;49.970;20.842;2022-10-17T16:42:48;15.45;;;8.95;;
43841;SDS011;29495;49.970;20.842;2022-10-17T16:45:18;12.63;;;8.60;;
43841;SDS011;29495;49.970;20.842;2022-10-17T16:47:51;14.90;;;9.15;;
43841;SDS011;29495;49.970;20.842;2022-10-17T16:50:43;11.63;;;8.07;;
43841;SDS011;29495;49.970;20.842;2022-10-17T16:53:20;13.85;;;8.48;;
43841;SDS011;29495;49.970;20.842;2022-10-17T16:56:06;14.23;;;8.70;;
43841;SDS011;29495;49.970;20.842;2022-10-17T16:58:38;16.67;;;9.65;;
43841;SDS011;29495;49.970;20.842;2022-10-17T17:01:14;20.40;;;13.02;;
43841;SDS011;29495;49.970;20.842;2022-10-17T17:03:42;26.83;;;16.02;;
43841;SDS011;29495;49.970;20.842;2022-10-17T17:14:40;32.25;;;15.98;;
43841;SDS011;29495;49.970;20.842;2022-10-17T17:17:07;25.52;;;13.98;;
43841;SDS011;29495;49.970;20.842;2022-10-17T17:24:50;23.67;;;12.75;;
43841;SDS011;29495;49.970;20.842;2022-10-17T17:28:10;20.88;;;12.77;;
43841;SDS011;29495;49.970;20.842;2022-10-17T17:30:39;21.15;;;12.02;;
43841;SDS011;29495;49.970;20.842;2022-10-17T17:33:05;24.13;;;13.30;;
43841;SDS011;29495;49.970;20.842;2022-10-17T17:35:32;23.40;;;11.60;;
43841;SDS011;29495;49.970;20.842;2022-10-17T17:37:58;23.08;;;13.23;;
43841;SDS011;29495;49.970;20.842;2022-10-17T17:40:27;18.80;;;11.68;;
43841;SDS011;29495;49.970;20.842;2022-10-17T17:42:53;17.90;;;11.38;;
43841;SDS011;29495;49.970;20.842;2022-10-17T17:45:19;15.07;;;9.05;;
43841;SDS011;29495;49.970;20.842;2022-10-17T17:48:05;15.32;;;9.75;;
43841;SDS011;29495;49.970;20.842;2022-10-17T17:50:40;19.10;;;9.70;;
43841;SDS011;29495;49.970;20.842;2022-10-17T17:53:23;14.50;;;9.40;;
43841;SDS011;29495;49.970;20.842;2022-10-17T17:56:24;15.63;;;9.60;;
43841;SDS011;29495;49.970;20.842;2022-10-17T17:58:55;17.48;;;9.70;;
43841;SDS011;29495;49.970;20.842;2022-10-17T18:02:23;14.90;;;9.70;;
43841;SDS011;29495;49.970;20.842;2022-10-17T18:04:49;14.93;;;10.68;;
43841;SDS011;29495;49.970;20.842;2022-10-17T18:07:39;11.30;;;8.95;;
43841;SDS011;29495;49.970;20.842;2022-10-17T18:10:19;12.07;;;8.98;;
43841;SDS011;29495;49.970;20.842;2022-10-17T18:13:07;16.25;;;10.80;;
43841;SDS011;29495;49.970;20.842;2022-10-17T18:15:33;13.90;;;10.50;;
43841;SDS011;29495;49.970;20.842;2022-10-17T18:18:08;14.82;;;10.23;;